Time;durP1;ratioP1;P1;durP2;ratioP2;P2;SDS_P1;SDS_P2;PMS_P1;PMS_P2;Temp;Humidity;BMP_temperature;BMP_pressure;BME280_temperature;BME280_humidity;BME280_pressure;Samples;Min_cycle;Max_cycle;Signal;HPM_P1;HPM_P2
2022/09/16 00:01:14;;;;;;;1999.90;999.90;;;20.20;99.90;;;;;;5269634;28;20472;-73
2022/09/16 00:03:46;;;;;;;1999.90;999.90;;;20.10;99.90;;;;;;5269568;28;20020;-73
2022/09/16 00:06:28;;;;;;;1999.90;999.90;;;20.00;99.90;;;;;;5269522;28;20031;-73
2022/09/16 00:09:00;;;;;;;1999.90;999.90;;;19.90;99.90;;;;;;5269652;28;20024;-73
2022/09/16 00:11:33;;;;;;;1999.90;999.90;;;19.90;99.90;;;;;;5269314;28;20110;-73
2022/09/16 00:14:04;;;;;;;1999.90;999.90;;;19.90;99.90;;;;;;5269233;28;20031;-73
2022/09/16 00:16:35;;;;;;;1999.90;999.90;;;19.80;99.90;;;;;;5269029;28;20024;-73
2022/09/16 00:19:07;;;;;;;1999.90;999.90;;;19.80;99.90;;;;;;5269160;28;20024;-73
2022/09/16 00:21:38;;;;;;;1999.90;999.90;;;19.90;99.90;;;;;;5269359;28;20375;-73
2022/09/16 00:24:12;;;;;;;1999.90;999.90;;;20.00;99.90;;;;;;5268772;28;20030;-73
2022/09/16 00:26:43;;;;;;;1999.90;999.90;;;20.00;99.90;;;;;;5267192;28;20571;-73
2022/09/16 00:29:14;;;;;;;1999.90;999.90;;;19.80;99.90;;;;;;5268894;28;20036;-73
2022/09/16 00:31:45;;;;;;;1999.90;999.90;;;19.60;99.90;;;;;;5268706;28;20008;-72
2022/09/16 00:34:16;;;;;;;1999.90;999.90;;;19.50;99.90;;;;;;5268831;28;20031;-72
2022/09/16 00:36:46;;;;;;;1999.90;999.90;;;19.80;99.90;;;;;;5268797;28;20378;-72
2022/09/16 00:39:17;;;;;;;1999.90;999.90;;;19.70;99.90;;;;;;5268874;28;20016;-72
2022/09/16 00:41:49;;;;;;;1999.90;999.90;;;19.90;99.90;;;;;;5268739;28;20417;-72
2022/09/16 00:44:56;;;;;;;1999.90;999.90;;;19.90;99.90;;;;;;5268714;28;20031;-72
2022/09/16 00:47:39;;;;;;;1999.90;999.90;;;19.60;99.90;;;;;;5268507;28;20111;-72
2022/09/16 00:50:18;;;;;;;1999.90;999.90;;;19.30;99.90;;;;;;5268682;28;20020;-73
2022/09/16 00:52:51;;;;;;;1999.90;999.90;;;19.30;99.90;;;;;;5268462;28;20040;-72
2022/09/16 00:55:29;;;;;;;1999.90;999.90;;;19.30;99.90;;;;;;5268236;28;20512;-73
2022/09/16 00:58:16;;;;;;;1999.90;999.90;;;19.30;99.90;;;;;;5268623;28;20028;-72
2022/09/16 01:00:48;;;;;;;1999.90;999.90;;;19.40;99.90;;;;;;5268358;28;20048;-73
2022/09/16 01:03:19;;;;;;;1999.90;999.90;;;19.30;99.90;;;;;;5268250;28;20531;-73
2022/09/16 01:05:51;;;;;;;1999.90;999.90;;;19.50;99.90;;;;;;5267943;28;20039;-72
2022/09/16 01:08:21;;;;;;;1999.90;999.90;;;19.90;99.90;;;;;;5268250;28;20035;-72
2022/09/16 01:10:52;;;;;;;1999.90;999.90;;;19.70;99.90;;;;;;5268107;28;20024;-72
2022/09/16 01:13:23;;;;;;;1999.90;999.90;;;19.30;99.90;;;;;;5268197;28;20066;-72
2022/09/16 01:16:09;;;;;;;1999.90;999.90;;;19.20;99.90;;;;;;5267921;28;20484;-73
2022/09/16 01:18:47;;;;;;;1999.90;999.90;;;19.00;99.90;;;;;;5268085;28;20085;-72
2022/09/16 01:21:27;;;;;;;1999.90;999.90;;;19.00;99.90;;;;;;5267891;28;20047;-73
2022/09/16 01:24:06;;;;;;;1999.90;999.90;;;18.90;99.90;;;;;;5267831;28;20593;-72
2022/09/16 01:26:55;;;;;;;1999.90;999.90;;;18.90;99.90;;;;;;5267326;28;20032;-73
2022/09/16 01:29:32;;;;;;;1999.90;999.90;;;19.10;99.90;;;;;;5268036;28;20090;-73
2022/09/16 01:32:18;;;;;;;1999.90;999.90;;;19.00;99.90;;;;;;5267689;28;20063;-73
2022/09/16 01:35:03;;;;;;;1999.90;999.90;;;19.20;99.90;;;;;;5267649;28;20028;-72
2022/09/16 01:38:19;;;;;;;1999.90;999.90;;;19.20;99.90;;;;;;5267794;28;20456;-73
2022/09/16 01:41:09;;;;;;;1999.90;999.90;;;19.40;99.90;;;;;;5267779;28;20099;-73
2022/09/16 01:44:05;;;;;;;1999.90;999.90;;;19.20;99.90;;;;;;5267737;28;20077;-72
2022/09/16 01:46:56;;;;;;;1999.90;999.90;;;19.30;99.90;;;;;;5267363;28;20130;-72
2022/09/16 01:49:35;;;;;;;1999.90;999.90;;;19.40;99.90;;;;;;5267544;28;20055;-72
2022/09/16 01:52:24;;;;;;;1999.90;999.90;;;19.30;99.90;;;;;;5267611;28;20085;-73
2022/09/16 01:55:00;;;;;;;1999.90;999.90;;;19.40;99.90;;;;;;5267592;28;20113;-73
2022/09/16 01:57:36;;;;;;;1999.90;999.90;;;19.30;99.90;;;;;;5267594;28;20089;-73
2022/09/16 02:00:13;;;;;;;1999.90;999.90;;;19.70;99.90;;;;;;5267968;28;20835;-73
2022/09/16 02:03:22;;;;;;;1999.90;999.90;;;19.60;99.90;;;;;;5267691;28;20067;-72
2022/09/16 02:05:59;;;;;;;1999.90;999.90;;;19.60;99.90;;;;;;5256107;28;20047;-72
2022/09/16 02:09:11;;;;;;;1999.90;999.90;;;19.20;99.90;;;;;;5271681;28;20111;-72
2022/09/16 02:11:45;;;;;;;1999.90;999.90;;;19.80;99.90;;;;;;5271931;28;20074;-72
2022/09/16 02:14:24;;;;;;;1999.90;999.90;;;19.90;99.90;;;;;;5271762;28;20020;-73
2022/09/16 02:17:01;;;;;;;1999.90;999.90;;;19.60;99.90;;;;;;5271930;28;20379;-73
2022/09/16 02:19:40;;;;;;;1999.90;999.90;;;19.80;99.90;;;;;;5271636;28;20472;-72
2022/09/16 02:22:17;;;;;;;1999.90;999.90;;;19.70;99.90;;;;;;5271537;28;20060;-72
2022/09/16 02:24:49;;;;;;;1999.90;999.90;;;20.10;99.90;;;;;;5271718;28;20028;-72
2022/09/16 02:27:22;;;;;;;1999.90;999.90;;;20.20;99.90;;;;;;5271277;28;20044;-72
2022/09/16 02:30:02;;;;;;;1999.90;999.90;;;20.20;99.90;;;;;;5271490;28;20050;-73
2022/09/16 02:32:37;;;;;;;1999.90;999.90;;;20.40;99.90;;;;;;5271345;28;20057;-72
2022/09/16 02:35:11;;;;;;;1999.90;999.90;;;20.40;99.90;;;;;;5270986;28;20066;-72
2022/09/16 02:37:50;;;;;;;1999.90;999.90;;;20.30;99.90;;;;;;5271092;28;20660;-73
2022/09/16 02:40:33;;;;;;;1999.90;999.90;;;20.10;99.90;;;;;;5271211;28;20028;-73
2022/09/16 02:43:04;;;;;;;1999.90;999.90;;;20.10;99.90;;;;;;5271320;28;20085;-72
2022/09/16 02:46:03;;;;;;;1999.90;999.90;;;20.10;99.90;;;;;;5271066;28;20032;-72
2022/09/16 02:48:41;;;;;;;1999.90;999.90;;;20.10;99.90;;;;;;5260807;28;20036;-72
2022/09/16 02:51:17;;;;;;;1999.90;999.90;;;20.20;99.90;;;;;;5271219;28;20032;-73
2022/09/16 02:53:58;;;;;;;1999.90;999.90;;;20.10;99.90;;;;;;5270846;28;20081;-73
2022/09/16 02:56:35;;;;;;;1999.90;999.90;;;20.00;99.90;;;;;;5270741;28;20491;-72
2022/09/16 02:59:09;;;;;;;1999.90;999.90;;;20.30;99.90;;;;;;5270694;28;20035;-73
2022/09/16 03:01:42;;;;;;;1999.90;999.90;;;20.20;99.90;;;;;;5270728;28;20448;-72
2022/09/16 03:04:16;;;;;;;1999.90;999.90;;;20.20;99.90;;;;;;5270434;28;20418;-73
2022/09/16 03:06:47;;;;;;;1999.90;999.90;;;20.10;99.90;;;;;;5270528;28;20437;-72
2022/09/16 03:09:22;;;;;;;1999.90;999.90;;;20.20;99.90;;;;;;5270403;28;20383;-73
2022/09/16 03:12:12;;;;;;;1999.90;999.90;;;20.20;99.90;;;;;;5270793;28;20518;-72
2022/09/16 03:15:27;;;;;;;1999.90;999.90;;;20.30;99.90;;;;;;5270345;28;20031;-72
2022/09/16 03:18:21;;;;;;;1999.90;999.90;;;20.30;99.90;;;;;;5260823;28;20115;-72
2022/09/16 03:21:06;;;;;;;1999.90;999.90;;;20.20;99.90;;;;;;5270766;28;20372;-72
2022/09/16 03:24:05;;;;;;;1999.90;999.90;;;20.10;99.90;;;;;;5270473;28;20032;-73
2022/09/16 03:26:56;;;;;;;1999.90;999.90;;;20.40;99.90;;;;;;5269907;28;20085;-72
2022/09/16 03:29:49;;;;;;;1999.90;999.90;;;20.30;99.90;;;;;;5270454;28;20075;-72
2022/09/16 03:32:26;;;;;;;1999.90;999.90;;;20.40;99.90;;;;;;5270650;28;20020;-73
2022/09/16 03:35:10;;;;;;;1999.90;999.90;;;20.20;99.90;;;;;;5270336;28;20563;-73
2022/09/16 03:37:43;;;;;;;1999.90;999.90;;;20.00;99.90;;;;;;5270043;28;20020;-72
2022/09/16 03:40:18;;;;;;;1999.90;999.90;;;19.80;99.90;;;;;;5270141;28;20035;-73
2022/09/16 03:42:48;;;;;;;1999.90;999.90;;;19.90;99.90;;;;;;5269596;28;20047;-72
2022/09/16 03:45:21;;;;;;;1999.90;999.90;;;19.80;99.90;;;;;;5270103;28;20040;-72
2022/09/16 03:47:52;;;;;;;1999.90;999.90;;;19.80;99.90;;;;;;5269872;28;20036;-73
2022/09/16 03:50:23;;;;;;;1999.90;999.90;;;19.80;99.90;;;;;;5269965;28;20032;-73
2022/09/16 03:52:54;;;;;;;1999.90;999.90;;;19.70;99.90;;;;;;5269829;28;20472;-72
2022/09/16 03:55:25;;;;;;;1999.90;999.90;;;19.60;99.90;;;;;;5269611;28;20081;-72
2022/09/16 03:57:56;;;;;;;1999.90;999.90;;;19.80;99.90;;;;;;5269582;28;20024;-72
2022/09/16 04:00:30;;;;;;;1999.90;999.90;;;19.70;99.90;;;;;;5269502;28;20165;-73
2022/09/16 04:03:00;;;;;;;1999.90;999.90;;;19.80;99.90;;;;;;5269438;28;20103;-72
2022/09/16 04:05:31;;;;;;;1999.90;999.90;;;20.00;99.90;;;;;;5269344;28;20165;-73
2022/09/16 04:08:02;;;;;;;1999.90;999.90;;;20.00;99.90;;;;;;5269424;28;20557;-73
2022/09/16 04:10:33;;;;;;;1999.90;999.90;;;20.00;99.90;;;;;;5269276;28;20126;-72
2022/09/16 04:13:04;;;;;;;1999.90;999.90;;;20.10;99.90;;;;;;5269401;28;20102;-73
2022/09/16 04:15:37;;;;;;;1999.90;999.90;;;20.20;99.90;;;;;;5268991;28;20032;-73
2022/09/16 04:18:08;;;;;;;1999.90;999.90;;;20.10;99.90;;;;;;5269568;28;20023;-72
2022/09/16 04:20:38;;;;;;;1999.90;999.90;;;20.10;99.90;;;;;;5269252;28;20028;-73
2022/09/16 04:23:09;;;;;;;1999.90;999.90;;;20.10;99.90;;;;;;5267694;28;20024;-73
2022/09/16 04:25:40;;;;;;;1999.90;999.90;;;20.00;99.90;;;;;;5268744;28;20032;-72
2022/09/16 04:28:11;;;;;;;1999.90;999.90;;;20.10;99.90;;;;;;5268593;28;20044;-73
2022/09/16 04:30:42;;;;;;;1999.90;999.90;;;20.00;99.90;;;;;;5268574;28;20464;-73
2022/09/16 04:33:12;;;;;;;1999.90;999.90;;;20.10;99.90;;;;;;5268933;28;20020;-73
2022/09/16 04:35:43;;;;;;;1999.90;999.90;;;20.30;99.90;;;;;;5268697;28;20020;-72
2022/09/16 04:38:14;;;;;;;1999.90;999.90;;;20.50;99.90;;;;;;5268842;28;20038;-72
2022/09/16 04:40:45;;;;;;;1999.90;999.90;;;20.50;99.90;;;;;;5269036;28;20438;-73
2022/09/16 04:43:16;;;;;;;1999.90;999.90;;;20.60;99.90;;;;;;5268826;28;20044;-73
2022/09/16 04:45:46;;;;;;;1999.90;999.90;;;20.70;99.90;;;;;;5268652;28;20025;-73
2022/09/16 04:48:18;;;;;;;1999.90;999.90;;;20.50;99.90;;;;;;5268478;28;20039;-72
2022/09/16 04:50:48;;;;;;;1999.90;999.90;;;20.40;99.90;;;;;;5268491;28;20028;-73
2022/09/16 04:53:20;;;;;;;1999.90;999.90;;;20.40;99.90;;;;;;5268516;28;20024;-73
2022/09/16 04:55:51;;;;;;;1999.90;999.90;;;20.60;99.90;;;;;;5268386;28;20024;-72
2022/09/16 04:58:22;;;;;;;1999.90;999.90;;;20.60;99.90;;;;;;5268530;28;20444;-72
2022/09/16 05:00:52;;;;;;;1999.90;999.90;;;20.60;99.90;;;;;;5268822;28;20031;-72
2022/09/16 05:03:23;;;;;;;1999.90;999.90;;;20.60;99.90;;;;;;5268285;28;20020;-72
2022/09/16 05:06:02;;;;;;;1999.90;999.90;;;20.60;99.90;;;;;;5268631;28;20059;-73
2022/09/16 05:08:34;;;;;;;1999.90;999.90;;;20.80;99.90;;;;;;5268139;28;20032;-73
2022/09/16 05:11:10;;;;;;;1999.90;999.90;;;21.10;99.90;;;;;;5268026;28;20077;-73
2022/09/16 05:13:42;;;;;;;1999.90;999.90;;;21.30;99.90;;;;;;5268070;28;20024;-73
2022/09/16 05:16:14;;;;;;;1999.90;999.90;;;21.40;99.90;;;;;;5267893;28;20028;-73
2022/09/16 05:18:46;;;;;;;1999.90;999.90;;;21.60;99.90;;;;;;5267893;28;20107;-73
2022/09/16 05:21:20;;;;;;;1999.90;999.90;;;21.80;99.90;;;;;;5268027;28;20473;-73
2022/09/16 05:23:51;;;;;;;1999.90;999.90;;;21.90;99.90;;;;;;5267785;28;20475;-73
2022/09/16 05:26:24;;;;;;;1999.90;999.90;;;22.00;99.90;;;;;;5267515;28;20032;-73
2022/09/16 05:28:58;;;;;;;1999.90;999.90;;;22.00;99.90;;;;;;5267764;28;20078;-73
2022/09/16 05:31:31;;;;;;;1999.90;999.90;;;22.00;99.90;;;;;;5267831;28;20498;-73
2022/09/16 05:34:27;;;;;;;1999.90;999.90;;;22.30;99.90;;;;;;5267848;28;20526;-72
2022/09/16 05:36:59;;;;;;;1999.90;999.90;;;22.30;99.90;;;;;;5267662;28;20024;-73
2022/09/16 05:39:30;;;;;;;1999.90;999.90;;;22.50;99.90;;;;;;5267617;28;20063;-73
2022/09/16 05:42:03;;;;;;;1999.90;999.90;;;22.60;99.90;;;;;;5266798;28;20137;-72
2022/09/16 05:44:34;;;;;;;1999.90;999.90;;;22.70;99.90;;;;;;5267686;28;20476;-72
2022/09/16 05:47:05;;;;;;;1999.90;999.90;;;22.80;99.90;;;;;;5267757;28;20157;-73
2022/09/16 05:49:36;;;;;;;1999.90;999.90;;;23.00;99.90;;;;;;5267816;28;20031;-73
2022/09/16 05:52:07;;;;;;;1999.90;999.90;;;23.20;99.90;;;;;;5267514;28;20017;-73
2022/09/16 05:54:37;;;;;;;1999.90;999.90;;;23.30;99.90;;;;;;5267434;28;20047;-73
2022/09/16 05:57:08;;;;;;;1999.90;999.90;;;23.40;99.90;;;;;;5267392;28;20028;-73
2022/09/16 05:59:39;;;;;;;1999.90;999.90;;;23.50;99.90;;;;;;5267677;28;20036;-73
2022/09/16 06:02:11;;;;;;;1999.90;999.90;;;23.60;99.90;;;;;;5267483;28;20020;-73
2022/09/16 06:04:42;;;;;;;1999.90;999.90;;;23.60;99.90;;;;;;5267489;28;20383;-73
2022/09/16 06:07:13;;;;;;;1999.90;999.90;;;23.90;99.90;;;;;;5267542;28;20024;-73
2022/09/16 06:09:44;;;;;;;1999.90;999.90;;;23.90;99.90;;;;;;5267384;28;20472;-73
2022/09/16 06:12:14;;;;;;;1999.90;999.90;;;24.00;99.90;;;;;;5267317;28;20486;-72
2022/09/16 06:14:45;;;;;;;1999.90;999.90;;;24.00;99.90;;;;;;5267410;28;20070;-73
2022/09/16 06:17:16;;;;;;;1999.90;999.90;;;24.10;99.90;;;;;;5267614;28;20066;-73
2022/09/16 06:19:47;;;;;;;1999.90;999.90;;;24.30;99.90;;;;;;5267408;28;20031;-73
2022/09/16 06:22:18;;;;;;;1999.90;999.90;;;24.40;99.90;;;;;;5267286;28;20383;-73
2022/09/16 06:24:50;;;;;;;1999.90;999.90;;;24.50;99.90;;;;;;5267232;28;20032;-73
2022/09/16 06:27:21;;;;;;;1999.90;999.90;;;24.60;99.90;;;;;;5266762;28;20063;-73
2022/09/16 06:29:52;;;;;;;1999.90;999.90;;;24.70;99.90;;;;;;5267266;28;20101;-73
2022/09/16 06:32:23;;;;;;;1999.90;999.90;;;25.00;99.90;;;;;;5267100;28;20044;-73
2022/09/16 06:34:54;;;;;;;1999.90;999.90;;;25.00;99.90;;;;;;5267100;28;20024;-73
2022/09/16 06:37:25;;;;;;;1999.90;999.90;;;25.20;99.90;;;;;;5267064;28;20074;-73
2022/09/16 06:39:56;;;;;;;1999.90;999.90;;;25.30;99.90;;;;;;5266966;28;20028;-73
2022/09/16 06:42:27;;;;;;;1999.90;999.90;;;25.40;99.90;;;;;;5267129;28;20024;-73
2022/09/16 06:44:58;;;;;;;1999.90;999.90;;;25.40;99.90;;;;;;5267054;28;20392;-73
2022/09/16 06:47:32;;;;;;;1999.90;999.90;;;25.60;99.90;;;;;;5266750;28;20036;-73
2022/09/16 06:50:04;;;;;;;1999.90;999.90;;;25.60;99.90;;;;;;5267156;28;20024;-73
2022/09/16 06:52:34;;;;;;;1999.90;999.90;;;25.80;99.90;;;;;;5267983;28;20024;-73
2022/09/16 06:55:05;;;;;;;1999.90;999.90;;;25.70;97.90;;;;;;5270844;28;20024;-72
2022/09/16 06:57:36;;;;;;;1999.90;999.90;;;25.90;97.00;;;;;;5270526;28;20032;-73
2022/09/16 07:00:08;;;;;;;1999.90;999.90;;;26.10;98.80;;;;;;5270631;28;20073;-73
2022/09/16 07:02:38;;;;;;;1999.90;999.90;;;26.20;98.50;;;;;;5270443;28;20060;-73
2022/09/16 07:05:10;;;;;;;1999.90;999.90;;;26.50;97.70;;;;;;5270516;28;20048;-73
2022/09/16 07:07:41;;;;;;;1999.90;999.90;;;26.60;96.10;;;;;;5270090;28;20445;-73
2022/09/16 07:10:12;;;;;;;1999.90;999.90;;;26.60;96.10;;;;;;5270007;28;20027;-73
2022/09/16 07:12:43;;;;;;;1999.90;999.90;;;26.80;96.20;;;;;;5270208;28;20124;-72
2022/09/16 07:15:14;;;;;;;1999.90;999.90;;;26.90;95.10;;;;;;5270213;28;20618;-73
2022/09/16 07:17:45;;;;;;;1999.90;999.90;;;27.10;95.00;;;;;;5270150;28;20479;-73
2022/09/16 07:20:16;;;;;;;1999.90;999.90;;;27.20;94.20;;;;;;5270281;28;20031;-73
2022/09/16 07:22:49;;;;;;;1999.90;999.90;;;27.40;92.40;;;;;;5270038;28;20031;-73
2022/09/16 07:25:20;;;;;;;1999.90;999.90;;;27.50;92.20;;;;;;5269953;28;20036;-73
2022/09/16 07:27:51;;;;;;;1999.90;999.90;;;27.60;92.50;;;;;;5269534;28;20051;-73
2022/09/16 07:30:22;;;;;;;1999.90;999.90;;;27.70;91.10;;;;;;5269825;28;20032;-73
2022/09/16 07:32:52;;;;;;;1999.90;999.90;;;27.90;90.50;;;;;;5270104;28;20028;-73
2022/09/16 07:35:23;;;;;;;1999.90;999.90;;;28.00;92.00;;;;;;5269919;28;20491;-73
2022/09/16 07:37:54;;;;;;;1999.90;999.90;;;28.20;92.00;;;;;;5270003;28;20020;-74
2022/09/16 07:40:25;;;;;;;1999.90;999.90;;;28.20;88.70;;;;;;5269810;28;20021;-73
2022/09/16 07:42:57;;;;;;;740.65;119.68;;;28.30;87.90;;;;;;5269704;28;20031;-73
2022/09/16 07:45:28;;;;;;;1999.90;999.90;;;28.20;87.90;;;;;;5269705;28;20045;-73
2022/09/16 07:47:58;;;;;;;1999.90;999.90;;;28.30;86.20;;;;;;5269656;28;20044;-73
2022/09/16 07:50:29;;;;;;;1999.90;999.90;;;28.30;84.60;;;;;;5269774;28;20028;-73
2022/09/16 07:53:00;;;;;;;1999.90;999.90;;;28.40;85.10;;;;;;5268040;28;20463;-74
2022/09/16 07:55:33;;;;;;;1999.90;999.90;;;28.50;84.80;;;;;;5269617;28;20020;-72
2022/09/16 07:58:04;;;;;;;1999.90;999.90;;;28.50;84.00;;;;;;5269498;28;20032;-72
2022/09/16 08:00:34;;;;;;;1999.90;999.90;;;28.50;84.20;;;;;;5269677;28;20020;-73
2022/09/16 08:03:05;;;;;;;1999.90;999.90;;;28.90;85.30;;;;;;5269432;28;20103;-73
2022/09/16 08:05:36;;;;;;;1999.90;999.90;;;28.60;82.50;;;;;;5268448;28;20017;-73
2022/09/16 08:08:07;;;;;;;1999.90;999.90;;;28.60;82.20;;;;;;5269151;28;20483;-72
2022/09/16 08:10:38;;;;;;;1999.90;999.90;;;28.50;82.50;;;;;;5269078;28;20024;-73
2022/09/16 08:13:09;;;;;;;1999.90;999.90;;;28.80;83.10;;;;;;5269278;28;20486;-73
2022/09/16 08:15:40;;;;;;;1999.90;999.90;;;28.90;82.80;;;;;;5269076;28;20077;-73
2022/09/16 08:18:10;;;;;;;1999.90;999.90;;;29.00;80.90;;;;;;5268950;28;20032;-74
2022/09/16 08:20:41;;;;;;;1999.90;999.90;;;29.30;83.10;;;;;;5268928;28;20490;-74
2022/09/16 08:23:13;;;;;;;1999.90;999.90;;;29.30;82.40;;;;;;5268936;28;20380;-73
2022/09/16 08:25:44;;;;;;;1999.90;999.90;;;29.30;81.60;;;;;;5268664;28;20026;-73
2022/09/16 08:28:16;;;;;;;1999.90;999.90;;;29.60;79.00;;;;;;5268385;28;20055;-73
2022/09/16 08:30:47;;;;;;;1999.90;999.90;;;29.80;77.30;;;;;;5268661;28;20035;-73
2022/09/16 08:33:20;;;;;;;1999.90;999.90;;;29.90;77.50;;;;;;5268776;28;20475;-73
2022/09/16 08:36:09;;;;;;;1999.90;999.90;;;30.10;77.70;;;;;;5268872;28;20012;-73
2022/09/16 08:38:42;;;;;;;1999.90;999.90;;;30.10;77.70;;;;;;5268611;28;20028;-73
2022/09/16 08:41:31;;;;;;;1999.90;999.90;;;30.00;77.40;;;;;;5268626;28;20028;-73
2022/09/16 08:44:18;;;;;;;1999.90;999.90;;;30.10;74.90;;;;;;5268478;28;20053;-73
2022/09/16 08:46:54;;;;;;;1999.90;999.90;;;30.20;74.60;;;;;;5268526;28;20032;-73
2022/09/16 08:49:28;;;;;;;1999.90;999.90;;;30.30;74.60;;;;;;5268722;28;20032;-73
2022/09/16 08:52:03;;;;;;;1999.90;999.90;;;30.60;75.20;;;;;;5268431;28;20020;-74
2022/09/16 08:54:45;;;;;;;1999.90;999.90;;;30.80;75.30;;;;;;5268296;28;20085;-73
2022/09/16 08:57:26;;;;;;;1999.90;999.90;;;30.50;74.60;;;;;;5268414;28;20127;-73
2022/09/16 09:00:03;;;;;;;1999.90;999.90;;;30.60;74.60;;;;;;5268474;28;20020;-74
2022/09/16 09:02:54;;;;;;;1999.90;999.90;;;30.90;74.90;;;;;;5266943;28;20543;-73
2022/09/16 09:05:31;;;;;;;1999.90;999.90;;;30.90;74.60;;;;;;5268255;28;20060;-73
2022/09/16 09:08:26;;;;;;;1999.90;999.90;;;31.10;74.60;;;;;;5268439;28;20024;-73
2022/09/16 09:11:25;;;;;;;1999.90;999.90;;;31.20;74.20;;;;;;5268015;28;20411;-73
2022/09/16 09:14:14;;;;;;;1999.90;999.90;;;31.10;72.40;;;;;;5267939;28;20028;-73
2022/09/16 09:16:49;;;;;;;1999.90;999.90;;;31.50;72.60;;;;;;5267895;28;20491;-74
2022/09/16 09:19:38;;;;;;;1999.90;999.90;;;31.30;71.00;;;;;;5267661;28;20032;-73
2022/09/16 09:22:43;;;;;;;1999.90;999.90;;;31.70;71.10;;;;;;5267944;28;20058;-74
2022/09/16 09:25:37;;;;;;;1999.90;999.90;;;31.50;71.20;;;;;;5267711;28;20030;-73
2022/09/16 09:28:36;;;;;;;1999.90;999.90;;;31.50;70.30;;;;;;5266077;28;20583;-74
2022/09/16 09:31:12;;;;;;;;;;;32.00;71.20;;;;;;5268162;28;20039;-73
2022/09/16 09:34:09;;;;;;;1999.90;999.90;;;31.70;68.70;;;;;;5267620;28;19908;-73
2022/09/16 09:36:50;;;;;;;1999.90;999.90;;;31.70;68.70;;;;;;5267599;28;20027;-73
2022/09/16 09:39:33;;;;;;;1999.90;999.90;;;31.80;68.80;;;;;;5267508;28;20426;-73
2022/09/16 09:42:24;;;;;;;1999.90;999.90;;;32.20;68.40;;;;;;5267550;28;20030;-73
2022/09/16 09:45:04;;;;;;;1833.85;785.40;;;32.20;68.00;;;;;;5267530;28;20031;-73
2022/09/16 09:48:04;;;;;;;1999.90;999.90;;;31.80;68.70;;;;;;5267407;28;20442;-74
2022/09/16 09:50:39;;;;;;;1999.90;999.90;;;32.30;67.80;;;;;;5266027;28;20586;-73
2022/09/16 09:53:10;;;;;;;1999.90;999.90;;;32.30;67.20;;;;;;5267590;28;20066;-73
2022/09/16 09:55:42;;;;;;;1999.90;999.90;;;32.20;68.50;;;;;;5267649;28;20558;-73
2022/09/16 09:58:42;;;;;;;1999.90;999.90;;;32.30;68.80;;;;;;5267620;28;20594;-74
2022/09/16 10:01:14;;;;;;;891.42;307.60;;;32.30;69.10;;;;;;5262330;28;20028;-74
2022/09/16 10:03:47;;;;;;;1999.90;999.90;;;32.20;70.70;;;;;;5267586;28;20024;-73
2022/09/16 10:06:25;;;;;;;1999.90;999.90;;;32.30;71.40;;;;;;5267437;28;20165;-73
2022/09/16 10:08:57;;;;;;;1999.90;999.90;;;31.90;70.30;;;;;;5267453;28;20044;-73
2022/09/16 10:11:30;;;;;;;643.25;119.45;;;32.30;72.20;;;;;;5267364;28;20031;-73
2022/09/16 10:14:01;;;;;;;1999.90;999.90;;;32.60;72.30;;;;;;5267420;28;20073;-74
2022/09/16 10:16:37;;;;;;;1999.90;999.90;;;32.40;72.50;;;;;;5267538;28;20368;-74
2022/09/16 10:19:24;;;;;;;1999.90;999.90;;;32.60;72.40;;;;;;5267282;28;20027;-73
2022/09/16 10:22:08;;;;;;;1999.90;999.90;;;32.30;71.20;;;;;;5267066;28;20024;-73
2022/09/16 10:24:53;;;;;;;1193.03;540.90;;;32.80;70.50;;;;;;5267021;28;20024;-73
2022/09/16 10:27:34;;;;;;;1999.90;999.90;;;32.90;70.80;;;;;;5267232;28;20503;-73
2022/09/16 10:30:18;;;;;;;1999.90;999.90;;;33.00;71.60;;;;;;5271311;28;20028;-73
2022/09/16 10:32:54;;;;;;;1999.90;999.90;;;33.00;71.20;;;;;;5270982;28;20055;-73
2022/09/16 10:35:28;;;;;;;1999.90;999.90;;;32.50;70.90;;;;;;5271102;28;20084;-73
2022/09/16 10:38:20;;;;;;;1999.90;999.90;;;33.30;71.00;;;;;;5270872;28;20430;-72
2022/09/16 10:40:56;;;;;;;1999.90;999.90;;;33.30;73.10;;;;;;5270590;28;20023;-72
2022/09/16 10:43:29;;;;;;;1999.90;999.90;;;33.30;71.60;;;;;;5270918;28;20028;-73
2022/09/16 10:46:00;;;;;;;1999.90;999.90;;;33.10;72.60;;;;;;5270902;28;20105;-73
2022/09/16 10:48:34;;;;;;;1999.90;999.90;;;32.90;71.20;;;;;;5270674;28;20036;-73
2022/09/16 10:51:18;;;;;;;1999.90;999.90;;;33.10;71.50;;;;;;5270697;28;20572;-73
2022/09/16 10:53:57;;;;;;;1999.90;999.90;;;33.50;72.30;;;;;;5270678;28;20119;-73
2022/09/16 10:56:32;;;;;;;1999.90;999.90;;;33.40;71.50;;;;;;5270585;28;20016;-73
2022/09/16 10:59:09;;;;;;;1999.90;999.90;;;33.70;70.70;;;;;;5270702;28;20031;-73
2022/09/16 11:02:11;;;;;;;1999.90;999.90;;;33.90;69.70;;;;;;5270487;28;20088;-72
2022/09/16 11:04:56;;;;;;;1999.90;999.90;;;33.80;71.20;;;;;;5270097;28;20020;-73
2022/09/16 11:07:36;;;;;;;1999.90;999.90;;;34.20;68.10;;;;;;5270204;28;20055;-73
2022/09/16 11:10:37;;;;;;;1999.90;999.90;;;34.30;68.70;;;;;;5270530;28;20031;-73
2022/09/16 11:13:48;;;;;;;1999.90;999.90;;;33.90;68.80;;;;;;5270433;28;20028;-74
2022/09/16 11:16:38;;;;;;;1999.90;999.90;;;34.20;68.10;;;;;;5270026;28;20024;-72
2022/09/16 11:19:20;;;;;;;1999.90;999.90;;;33.80;67.50;;;;;;5270484;28;20476;-75
2022/09/16 11:22:15;;;;;;;1999.90;999.90;;;34.20;66.70;;;;;;5270345;28;20103;-72
2022/09/16 11:25:20;;;;;;;1999.90;999.90;;;34.10;69.40;;;;;;5270191;28;20479;-72
2022/09/16 11:28:07;;;;;;;1999.90;999.90;;;34.60;70.30;;;;;;5269923;28;20380;-72
2022/09/16 11:30:51;;;;;;;1999.90;999.90;;;34.00;67.50;;;;;;5270099;28;20533;-73
2022/09/16 11:33:39;;;;;;;1999.90;999.90;;;33.80;69.40;;;;;;5269991;28;20062;-72
2022/09/16 11:37:11;;;;;;;1999.90;999.90;;;33.60;71.20;;;;;;5270080;28;20518;-73
2022/09/16 11:40:00;;;;;;;1999.90;999.90;;;33.40;69.60;;;;;;5245163;28;20047;-72
2022/09/16 11:42:36;;;;;;;;;;;32.90;71.60;;;;;;5246825;28;20017;-73
2022/09/16 11:45:38;;;;;;;1999.90;999.90;;;32.90;73.70;;;;;;5246344;28;19946;-72
2022/09/16 11:48:33;;;;;;;1999.90;999.90;;;32.30;74.20;;;;;;5246454;28;20406;-73
2022/09/16 11:51:30;;;;;;;1999.90;999.90;;;32.90;75.80;;;;;;5246307;28;20460;-73
2022/09/16 11:54:04;;;;;;;1550.63;755.65;;;32.90;75.90;;;;;;5246031;28;20024;-74
2022/09/16 11:56:45;;;;;;;1999.90;999.90;;;33.30;73.50;;;;;;5245766;28;20048;-73
2022/09/16 11:59:25;;;;;;;1999.90;999.90;;;33.40;73.60;;;;;;5246071;28;20151;-74
2022/09/16 12:02:23;;;;;;;1999.90;999.90;;;33.50;75.50;;;;;;5245956;28;20036;-73
2022/09/16 12:05:22;;;;;;;1999.90;999.90;;;33.20;74.40;;;;;;5245909;28;20043;-73
2022/09/16 12:08:01;;;;;;;1999.90;999.90;;;33.10;74.00;;;;;;5245352;28;20506;-73
2022/09/16 12:10:38;;;;;;;1999.90;999.90;;;33.30;74.40;;;;;;5258470;28;20540;-72
2022/09/16 12:13:19;;;;;;;1999.90;999.90;;;33.00;72.40;;;;;;5269434;28;20101;-74
2022/09/16 12:16:04;;;;;;;1999.90;999.90;;;33.70;74.00;;;;;;5269351;28;20024;-73
2022/09/16 12:18:46;;;;;;;1999.90;999.90;;;33.50;72.30;;;;;;5269216;28;20036;-73
2022/09/16 12:21:24;;;;;;;1999.90;999.90;;;33.70;68.50;;;;;;5269010;28;20020;-73
2022/09/16 12:24:13;;;;;;;1999.90;999.90;;;33.80;68.00;;;;;;5269106;28;20027;-72
2022/09/16 12:26:51;;;;;;;1999.90;999.90;;;33.30;68.60;;;;;;5268605;28;20044;-74
2022/09/16 12:29:24;;;;;;;1999.90;999.90;;;33.70;68.40;;;;;;5269300;28;20060;-73
2022/09/16 12:32:28;;;;;;;1999.90;999.90;;;33.70;67.90;;;;;;5269013;28;20146;-73
2022/09/16 12:35:11;;;;;;;1999.90;999.90;;;33.60;70.70;;;;;;5268357;28;20028;-73
2022/09/16 12:37:53;;;;;;;1999.90;999.90;;;33.50;71.60;;;;;;5268583;28;20028;-72
2022/09/16 12:41:06;;;;;;;1357.20;283.35;;;33.50;71.90;;;;;;5268500;28;20032;-72
2022/09/16 12:43:52;;;;;;;1999.90;999.90;;;33.40;72.60;;;;;;5267812;28;20071;-72
2022/09/16 12:46:38;;;;;;;1999.90;999.90;;;33.70;66.80;;;;;;5267053;28;20028;-72
2022/09/16 12:49:38;;;;;;;1999.90;999.90;;;33.70;66.10;;;;;;5268378;28;20024;-73
2022/09/16 12:52:17;;;;;;;1999.90;999.90;;;33.90;70.30;;;;;;5266065;28;20407;-73
2022/09/16 12:54:56;;;;;;;1999.90;999.90;;;33.90;70.70;;;;;;5268186;28;20030;-73